createdAt,value
2017-11-01T00:00:29.232Z,22.40
2017-11-01T00:01:05.655Z,25.25
2017-11-01T00:01:40.381Z,24.30
2017-11-01T00:02:15.419Z,24.35
2017-11-01T00:02:50.175Z,23.73
2017-11-01T00:03:24.920Z,24.83
2017-11-01T00:03:59.728Z,24.40
2017-11-01T00:04:34.453Z,23.75
2017-11-01T00:05:09.184Z,24.90
2017-11-01T00:05:43.910Z,24.08
2017-11-01T00:06:18.977Z,24.33
2017-11-01T00:07:02.446Z,25.00
2017-11-01T00:07:38.484Z,24.05
2017-11-01T00:08:13.205Z,24.10
2017-11-01T00:08:47.933Z,25.95
2017-11-01T00:09:22.725Z,25.98
2017-11-01T00:09:57.715Z,25.58
2017-11-01T00:10:32.440Z,24.65
2017-11-01T00:11:07.175Z,25.48
2017-11-01T00:11:42.063Z,25.42
2017-11-01T00:12:16.786Z,25.73
2017-11-01T00:12:51.655Z,26.60
2017-11-01T00:13:26.650Z,26.77
2017-11-01T00:14:01.459Z,26.00
2017-11-01T00:14:36.166Z,24.52
2017-11-01T00:15:10.880Z,26.77
2017-11-01T00:15:45.667Z,27.87
2017-11-01T00:16:25.960Z,26.25
2017-11-01T00:17:00.685Z,26.23
2017-11-01T00:17:35.052Z,26.70
2017-11-01T00:18:09.753Z,26.37
2017-11-01T00:18:44.483Z,27.75
2017-11-01T00:19:19.283Z,28.70
2017-11-01T00:19:54.006Z,28.10
2017-11-01T00:20:28.875Z,26.48
2017-11-01T00:21:03.600Z,27.90
2017-11-01T00:21:38.368Z,28.15
2017-11-01T00:22:13.338Z,25.70
2017-11-01T00:22:48.053Z,27.55
2017-11-01T00:23:22.765Z,27.77
2017-11-01T00:23:57.464Z,26.58
2017-11-01T00:24:32.179Z,27.80
2017-11-01T00:25:06.883Z,27.77
2017-11-01T00:25:41.600Z,27.20
2017-11-01T00:26:16.313Z,27.98
2017-11-01T00:26:51.015Z,26.40
2017-11-01T00:27:26.347Z,28.80
2017-11-01T00:28:01.145Z,29.50
2017-11-01T00:28:35.830Z,28.30
2017-11-01T00:29:10.543Z,28.85
2017-11-01T00:29:45.412Z,28.25
2017-11-01T00:30:20.206Z,30.48
2017-11-01T00:30:54.919Z,29.77
2017-11-01T00:31:29.642Z,28.83
2017-11-01T00:32:04.358Z,29.30
2017-11-01T00:32:39.387Z,28.27
2017-11-01T00:33:14.097Z,29.80
2017-11-01T00:33:48.800Z,29.70
2017-11-01T00:34:23.520Z,29.87
2017-11-01T00:34:58.220Z,30.90
2017-11-01T00:35:32.931Z,30.58
2017-11-01T00:36:07.646Z,30.83
2017-11-01T00:36:42.361Z,30.20
2017-11-01T00:37:17.084Z,29.60
2017-11-01T00:37:51.819Z,31.52
2017-11-01T00:38:26.572Z,31.90
2017-11-01T00:39:01.693Z,30.02
2017-11-01T00:39:36.468Z,30.92
2017-11-01T00:40:10.849Z,29.77
2017-11-01T00:40:45.570Z,32.55
2017-11-01T00:41:20.859Z,32.30
2017-11-01T00:41:55.724Z,32.75
2017-11-01T00:42:30.537Z,33.05
2017-11-01T00:43:05.331Z,32.33
2017-11-01T00:43:40.026Z,32.80
2017-11-01T00:44:14.784Z,32.53
2017-11-01T00:44:49.491Z,32.95
2017-11-01T00:45:24.189Z,31.73
2017-11-01T00:45:58.946Z,31.73
2017-11-01T00:46:33.664Z,31.25
2017-11-01T00:47:08.384Z,32.55
2017-11-01T00:47:43.080Z,33.28
2017-11-01T00:48:18.109Z,32.53
2017-11-01T00:48:52.822Z,32.80
2017-11-01T00:49:27.540Z,33.97
2017-11-01T00:50:02.251Z,33.75
2017-11-01T00:50:36.965Z,32.00
2017-11-01T00:51:11.680Z,30.88
2017-11-01T00:51:46.463Z,33.90
2017-11-01T00:52:21.179Z,33.28
2017-11-01T00:52:55.935Z,32.85
2017-11-01T00:53:30.655Z,32.83
2017-11-01T00:54:05.425Z,32.50
2017-11-01T00:54:40.133Z,33.55
2017-11-01T00:55:14.852Z,32.75
2017-11-01T00:55:49.936Z,33.03
2017-11-01T00:56:24.649Z,32.92
2017-11-01T00:56:59.355Z,33.15
2017-11-01T00:57:34.076Z,33.10
2017-11-01T00:58:08.828Z,34.88
2017-11-01T00:58:43.569Z,34.28
2017-11-01T00:59:18.273Z,32.17
2017-11-01T00:59:52.985Z,31.50
2017-11-01T01:00:27.703Z,32.15
2017-11-01T01:01:02.427Z,31.37
2017-11-01T01:01:37.243Z,31.87
2017-11-01T01:02:11.944Z,33.80
2017-11-01T01:02:46.672Z,33.03
2017-11-01T01:03:21.473Z,33.72
2017-11-01T01:03:56.192Z,32.78
2017-11-01T01:04:30.903Z,32.90
2017-11-01T01:05:05.599Z,33.28
2017-11-01T01:05:40.356Z,32.45
2017-11-01T01:06:15.065Z,33.92
2017-11-01T01:06:49.771Z,31.98
2017-11-01T01:07:24.483Z,33.08
2017-11-01T01:07:59.227Z,33.45
2017-11-01T01:08:33.939Z,34.58
2017-11-01T01:09:08.663Z,32.90
2017-11-01T01:09:43.385Z,33.70
2017-11-01T01:10:18.083Z,33.08
2017-11-01T01:10:52.802Z,33.28
2017-11-01T01:11:27.528Z,34.95
2017-11-01T01:12:04.041Z,34.42
2017-11-01T01:12:38.751Z,35.75
2017-11-01T01:13:14.625Z,33.50
2017-11-01T01:13:49.341Z,33.50
2017-11-01T01:14:24.085Z,33.53
2017-11-01T01:14:58.800Z,32.50
2017-11-01T01:15:33.521Z,32.88
2017-11-01T01:16:08.229Z,33.05
2017-11-01T01:16:42.941Z,34.67
2017-11-01T01:17:17.650Z,34.80
2017-11-01T01:17:52.370Z,34.17
2017-11-01T01:18:27.084Z,33.78
2017-11-01T01:19:01.801Z,34.20
2017-11-01T01:19:36.560Z,33.80
2017-11-01T01:20:11.256Z,35.28
2017-11-01T01:20:46.008Z,34.15
2017-11-01T01:21:20.711Z,34.60
2017-11-01T01:21:55.417Z,35.00
2017-11-01T01:22:30.112Z,34.17
2017-11-01T01:23:04.817Z,34.00
2017-11-01T01:23:39.524Z,34.03
2017-11-01T01:24:14.250Z,33.60
2017-11-01T01:24:49.234Z,32.95
2017-11-01T01:25:23.957Z,33.15
2017-11-01T01:25:58.674Z,34.15
2017-11-01T01:26:33.383Z,32.95
2017-11-01T01:27:08.099Z,33.40
2017-11-01T01:27:42.811Z,33.90
2017-11-01T01:28:17.515Z,34.05
2017-11-01T01:28:52.228Z,33.65
2017-11-01T01:29:26.952Z,33.10
2017-11-01T01:30:01.993Z,34.17
2017-11-01T01:30:36.723Z,33.15
2017-11-01T01:31:11.445Z,33.08
2017-11-01T01:31:46.170Z,35.78
2017-11-01T01:32:20.887Z,33.33
2017-11-01T01:32:55.603Z,33.60
2017-11-01T01:33:30.366Z,34.28
2017-11-01T01:34:05.066Z,33.53
2017-11-01T01:34:39.822Z,32.78
2017-11-01T01:35:14.836Z,34.25
2017-11-01T01:35:49.535Z,34.67
2017-11-01T01:36:24.243Z,35.28
2017-11-01T01:36:58.978Z,34.28
2017-11-01T01:37:33.695Z,34.92
2017-11-01T01:38:08.395Z,33.70
2017-11-01T01:38:43.201Z,34.38
2017-11-01T01:39:17.920Z,35.60
2017-11-01T01:39:52.628Z,33.47
2017-11-01T01:40:27.734Z,35.95
2017-11-01T01:41:02.448Z,34.80
2017-11-01T01:41:37.159Z,34.70
2017-11-01T01:42:11.876Z,35.80
2017-11-01T01:42:46.588Z,34.38
2017-11-01T01:43:21.306Z,32.22
2017-11-01T01:43:56.024Z,34.03
2017-11-01T01:44:30.857Z,37.55
2017-11-01T01:45:05.565Z,34.53
2017-11-01T01:45:40.308Z,34.45
2017-11-01T01:46:15.063Z,34.03
2017-11-01T01:46:49.784Z,37.03
2017-11-01T01:47:24.494Z,36.10
2017-11-01T01:47:59.198Z,33.75
2017-11-01T01:48:33.980Z,36.45
2017-11-01T01:49:08.703Z,35.10
2017-11-01T01:49:43.408Z,34.55
2017-11-01T01:50:18.124Z,36.90
2017-11-01T01:50:52.862Z,35.63
2017-11-01T01:51:27.573Z,35.17
2017-11-01T01:52:02.295Z,36.85
2017-11-01T01:52:37.019Z,36.75
2017-11-01T01:53:11.761Z,36.55
2017-11-01T01:53:46.472Z,36.72
2017-11-01T01:54:21.222Z,36.78
2017-11-01T01:54:55.974Z,37.53
2017-11-01T01:55:30.686Z,37.03
2017-11-01T01:56:05.423Z,35.50
2017-11-01T01:56:40.138Z,36.42
2017-11-01T01:57:14.525Z,36.67
2017-11-01T01:57:48.891Z,36.33
2017-11-01T01:58:23.599Z,36.88
2017-11-01T01:58:58.316Z,35.50
2017-11-01T01:59:32.672Z,36.03
2017-11-01T02:00:07.039Z,36.35
2017-11-01T02:00:41.394Z,35.45
2017-11-01T02:01:15.799Z,36.80
2017-11-01T02:01:50.199Z,36.03
2017-11-01T02:02:24.556Z,35.88
2017-11-01T02:02:59.724Z,32.85
2017-11-01T02:03:34.119Z,37.08
2017-11-01T02:04:08.494Z,38.05
2017-11-01T02:04:43.277Z,35.83
2017-11-01T02:05:18.000Z,36.40
2017-11-01T02:05:52.715Z,36.70
2017-11-01T02:06:27.740Z,36.53
2017-11-01T02:07:02.098Z,38.92
2017-11-01T02:07:36.855Z,36.60
2017-11-01T02:08:11.559Z,38.22
2017-11-01T02:08:46.282Z,38.67
2017-11-01T02:09:21.090Z,37.50
2017-11-01T02:09:55.803Z,37.03
2017-11-01T02:10:30.536Z,37.75
2017-11-01T02:11:04.911Z,37.58
2017-11-01T02:11:39.661Z,37.67
2017-11-01T02:12:14.380Z,37.17
2017-11-01T02:12:49.081Z,38.20
2017-11-01T02:13:23.811Z,38.33
2017-11-01T02:13:58.540Z,37.88
2017-11-01T02:14:32.911Z,35.95
2017-11-01T02:15:07.658Z,37.80
2017-11-01T02:15:42.030Z,39.05
2017-11-01T02:16:16.744Z,37.58
2017-11-01T02:16:51.775Z,38.28
2017-11-01T02:17:26.578Z,39.22
2017-11-01T02:18:01.298Z,38.60
2017-11-01T02:18:35.669Z,38.63
2017-11-01T02:19:10.028Z,38.92
2017-11-01T02:19:44.389Z,39.85
2017-11-01T02:20:18.744Z,39.53
2017-11-01T02:20:53.113Z,40.83
2017-11-01T02:21:27.528Z,38.80
2017-11-01T02:22:01.927Z,39.95
2017-11-01T02:22:36.303Z,39.83
2017-11-01T02:23:10.667Z,40.85
2017-11-01T02:23:45.375Z,41.28
2017-11-01T02:24:19.744Z,40.80
2017-11-01T02:24:54.105Z,41.03
2017-11-01T02:25:28.822Z,41.78
2017-11-01T02:26:03.190Z,41.97
2017-11-01T02:26:37.568Z,41.47
2017-11-01T02:27:11.954Z,40.72
2017-11-01T02:27:46.320Z,38.72
2017-11-01T02:28:20.680Z,41.00
2017-11-01T02:28:55.433Z,41.60
2017-11-01T02:29:29.803Z,42.42
2017-11-01T02:30:04.653Z,40.25
2017-11-01T02:30:39.022Z,41.17
2017-11-01T02:31:13.383Z,40.67
2017-11-01T02:31:47.813Z,41.53
2017-11-01T02:32:22.525Z,40.40
2017-11-01T02:32:56.891Z,41.80
2017-11-01T02:33:31.248Z,43.00
2017-11-01T02:34:05.628Z,40.67
2017-11-01T02:34:40.356Z,38.55
2017-11-01T02:35:14.727Z,40.78
2017-11-01T02:35:49.088Z,41.90
2017-11-01T02:36:23.469Z,40.55
2017-11-01T02:36:57.873Z,42.17
2017-11-01T02:37:32.247Z,41.08
2017-11-01T02:38:07.144Z,42.40
2017-11-01T02:38:41.536Z,39.80
2017-11-01T02:39:16.244Z,42.33
2017-11-01T02:39:53.019Z,39.20
2017-11-01T02:40:27.416Z,39.78
2017-11-01T02:41:02.128Z,38.55
2017-11-01T02:41:36.508Z,44.17
2017-11-01T02:42:10.880Z,41.25
2017-11-01T02:42:45.528Z,39.83
2017-11-01T02:43:19.895Z,41.05
2017-11-01T02:43:54.263Z,41.58
2017-11-01T02:44:28.652Z,39.72
2017-11-01T02:45:03.024Z,39.42
2017-11-01T02:45:37.759Z,40.65
2017-11-01T02:46:12.503Z,40.20
2017-11-01T02:46:46.890Z,41.13
2017-11-01T02:47:21.250Z,40.47
2017-11-01T02:47:55.648Z,41.65
2017-11-01T02:48:30.012Z,41.92
2017-11-01T02:49:04.469Z,41.63
2017-11-01T02:49:38.835Z,41.78
2017-11-01T02:50:13.207Z,41.75
2017-11-01T02:50:48.514Z,42.42
2017-11-01T02:51:22.916Z,40.70
2017-11-01T02:51:57.623Z,40.38
2017-11-01T02:52:31.996Z,39.30
2017-11-01T02:53:06.748Z,41.37
2017-11-01T02:53:41.118Z,40.05
2017-11-01T02:54:15.497Z,42.40
2017-11-01T02:54:49.880Z,39.80
2017-11-01T02:55:24.237Z,41.20
2017-11-01T02:55:58.627Z,39.15
2017-11-01T02:56:33.009Z,39.58
2017-11-01T02:57:07.391Z,38.47
2017-11-01T02:57:41.770Z,40.67
2017-11-01T02:58:16.439Z,41.65
2017-11-01T02:58:50.810Z,40.15
2017-11-01T02:59:25.191Z,37.60
2017-11-01T03:00:02.350Z,38.15
2017-11-01T03:00:36.730Z,36.70
2017-11-01T03:01:11.105Z,38.75
2017-11-01T03:01:45.822Z,37.45
2017-11-01T03:02:20.599Z,38.03
2017-11-01T03:02:54.974Z,38.30
2017-11-01T03:03:29.715Z,35.20
2017-11-01T03:04:04.090Z,37.60
2017-11-01T03:04:38.794Z,38.15
2017-11-01T03:05:13.173Z,35.47
2017-11-01T03:05:47.546Z,36.17
2017-11-01T03:06:21.922Z,37.65
2017-11-01T03:06:56.303Z,36.15
2017-11-01T03:07:30.697Z,35.85
2017-11-01T03:08:05.440Z,36.80
2017-11-01T03:08:40.155Z,37.03
2017-11-01T03:09:14.528Z,35.92
2017-11-01T03:09:48.912Z,35.97
2017-11-01T03:10:23.621Z,36.58
2017-11-01T03:10:58.339Z,36.35
2017-11-01T03:11:32.708Z,34.42
2017-11-01T03:12:07.084Z,34.60
2017-11-01T03:12:41.791Z,34.20
2017-11-01T03:13:16.167Z,36.08
2017-11-01T03:13:50.557Z,35.13
2017-11-01T03:14:24.915Z,36.08
2017-11-01T03:14:59.285Z,35.75
2017-11-01T03:15:33.656Z,34.88
2017-11-01T03:16:08.034Z,33.40
2017-11-01T03:16:42.449Z,35.30
2017-11-01T03:17:16.812Z,32.92
2017-11-01T03:17:51.171Z,34.40
2017-11-01T03:18:25.536Z,35.35
2017-11-01T03:19:00.264Z,35.08
2017-11-01T03:19:34.634Z,35.38
2017-11-01T03:20:09.012Z,34.35
2017-11-01T03:20:43.374Z,33.20
2017-11-01T03:21:17.747Z,33.70
2017-11-01T03:21:52.159Z,34.53
2017-11-01T03:22:26.520Z,33.47
2017-11-01T03:23:00.878Z,33.50
2017-11-01T03:23:35.309Z,30.90
2017-11-01T03:24:09.984Z,30.90
2017-11-01T03:24:44.351Z,30.95
2017-11-01T03:25:18.721Z,32.33
2017-11-01T03:25:53.099Z,31.90
2017-11-01T03:26:27.470Z,32.35
2017-11-01T03:27:01.834Z,32.35
2017-11-01T03:27:36.241Z,31.98
2017-11-01T03:28:10.612Z,31.58
2017-11-01T03:28:44.965Z,31.67
2017-11-01T03:29:19.613Z,31.52
2017-11-01T03:29:53.895Z,30.85
2017-11-01T03:30:28.266Z,30.50
2017-11-01T03:31:02.628Z,31.23
2017-11-01T03:31:36.997Z,31.08
2017-11-01T03:32:11.715Z,29.50
2017-11-01T03:32:46.083Z,29.75
2017-11-01T03:33:20.477Z,30.60
2017-11-01T03:33:55.442Z,30.45
2017-11-01T03:34:29.823Z,30.08
2017-11-01T03:35:04.189Z,29.42
2017-11-01T03:35:38.915Z,28.17
2017-11-01T03:36:13.596Z,29.30
2017-11-01T03:36:48.313Z,28.58
2017-11-01T03:37:22.675Z,28.62
2017-11-01T03:37:57.051Z,29.33
2017-11-01T03:38:31.427Z,27.33
2017-11-01T03:39:06.137Z,30.30
2017-11-01T03:39:40.883Z,28.45
2017-11-01T03:40:15.258Z,28.65
2017-11-01T03:40:49.486Z,28.58
2017-11-01T03:41:23.860Z,28.60
2017-11-01T03:41:58.223Z,28.77
2017-11-01T03:42:32.609Z,28.35
2017-11-01T03:43:06.976Z,28.17
2017-11-01T03:43:41.340Z,28.10
2017-11-01T03:44:15.683Z,25.80
2017-11-01T03:44:50.329Z,25.58
2017-11-01T03:45:24.687Z,26.42
2017-11-01T03:45:59.056Z,28.25
2017-11-01T03:46:33.431Z,27.92
2017-11-01T03:47:07.796Z,28.10
2017-11-01T03:47:42.159Z,28.80
2017-11-01T03:48:16.512Z,26.95
2017-11-01T03:48:50.868Z,25.52
2017-11-01T03:49:25.231Z,26.55
2017-11-01T03:50:00.004Z,26.15
2017-11-01T03:50:34.374Z,23.95
2017-11-01T03:51:09.075Z,25.08
2017-11-01T03:51:43.881Z,24.60
2017-11-01T03:52:18.251Z,24.25
2017-11-01T03:52:52.629Z,24.60
2017-11-01T03:53:26.992Z,26.15
2017-11-01T03:54:01.355Z,24.83
2017-11-01T03:54:35.544Z,25.42
2017-11-01T03:55:10.048Z,24.23
2017-11-01T03:55:44.755Z,25.48
2017-11-01T03:56:19.134Z,26.48
2017-11-01T03:56:54.623Z,26.98
2017-11-01T03:57:28.990Z,24.55
2017-11-01T03:58:03.355Z,23.58
2017-11-01T03:58:37.846Z,24.25
2017-11-01T03:59:12.247Z,23.70
2017-11-01T03:59:46.612Z,23.90
2017-11-01T04:00:21.359Z,23.42
2017-11-01T04:00:55.723Z,23.20
2017-11-01T04:01:30.098Z,21.40
2017-11-01T04:02:04.474Z,21.30
2017-11-01T04:02:38.838Z,22.85
2017-11-01T04:03:13.213Z,22.33
2017-11-01T04:03:47.588Z,23.17
2017-11-01T04:04:21.956Z,23.20
2017-11-01T04:04:56.326Z,22.75
2017-11-01T04:05:31.045Z,23.65
2017-11-01T04:06:05.415Z,22.05
2017-11-01T04:06:39.787Z,21.90
2017-11-01T04:07:14.184Z,22.23
2017-11-01T04:07:48.906Z,21.75
2017-11-01T04:08:23.289Z,22.08
2017-11-01T04:08:57.672Z,19.77
2017-11-01T04:09:32.039Z,21.15
2017-11-01T04:10:06.405Z,20.58
2017-11-01T04:10:40.809Z,21.62
2017-11-01T04:11:15.183Z,22.23
2017-11-01T04:11:49.577Z,20.15
2017-11-01T04:12:23.957Z,19.85
2017-11-01T04:12:58.323Z,20.98
2017-11-01T04:13:32.797Z,20.75
2017-11-01T04:14:07.172Z,22.20
2017-11-01T04:14:41.531Z,20.00
2017-11-01T04:15:15.887Z,20.90
2017-11-01T04:15:50.679Z,20.83
2017-11-01T04:16:25.454Z,20.05
2017-11-01T04:17:01.104Z,20.23
2017-11-01T04:17:35.819Z,21.30
2017-11-01T04:18:16.219Z,20.58
2017-11-01T04:18:56.155Z,18.60
2017-11-01T04:19:30.856Z,18.98
2017-11-01T04:20:20.421Z,20.08
2017-11-01T04:20:54.819Z,20.10
2017-11-01T04:21:29.550Z,20.20
2017-11-01T04:22:03.930Z,20.60
2017-11-01T04:22:38.641Z,19.35
2017-11-01T04:23:12.996Z,20.20
2017-11-01T04:23:47.372Z,20.17
2017-11-01T04:24:22.086Z,19.60
2017-11-01T04:24:56.447Z,20.05
2017-11-01T04:25:30.967Z,18.92
2017-11-01T04:26:05.979Z,19.48
2017-11-01T04:26:40.699Z,19.48
2017-11-01T04:27:15.085Z,20.48
2017-11-01T04:27:49.459Z,17.65
2017-11-01T04:28:23.855Z,20.05
2017-11-01T04:28:58.221Z,19.20
2017-11-01T04:29:32.592Z,19.85
2017-11-01T04:30:06.943Z,18.25
2017-11-01T04:30:41.307Z,18.10
2017-11-01T04:31:16.053Z,18.90
2017-11-01T04:31:50.449Z,19.65
2017-11-01T04:32:24.807Z,19.10
2017-11-01T04:32:59.166Z,18.12
2017-11-01T04:33:33.892Z,18.30
2017-11-01T04:34:08.264Z,18.45
2017-11-01T04:34:42.639Z,19.08
2017-11-01T04:35:17.008Z,18.98
2017-11-01T04:35:51.389Z,18.70
2017-11-01T04:36:26.213Z,20.00
2017-11-01T04:37:00.582Z,19.08
2017-11-01T04:37:34.943Z,19.23
2017-11-01T04:38:09.387Z,19.00
2017-11-01T04:38:43.757Z,18.75
2017-11-01T04:39:18.127Z,19.05
2017-11-01T04:39:52.497Z,17.65
2017-11-01T04:40:26.870Z,19.05
2017-11-01T04:41:01.248Z,19.08
2017-11-01T04:41:36.082Z,17.12
2017-11-01T04:42:10.454Z,18.45
2017-11-01T04:42:44.944Z,18.70
2017-11-01T04:43:19.323Z,17.58
2017-11-01T04:43:53.715Z,19.10
2017-11-01T04:44:28.083Z,18.37
2017-11-01T04:45:02.464Z,17.70
2017-11-01T04:45:36.835Z,17.42
2017-11-01T04:46:11.588Z,17.33
2017-11-01T04:46:46.255Z,18.77
2017-11-01T04:47:20.647Z,17.48
2017-11-01T04:47:55.510Z,17.90
2017-11-01T04:48:29.878Z,18.60
2017-11-01T04:49:04.236Z,18.08
2017-11-01T04:49:38.607Z,17.90
2017-11-01T04:50:12.978Z,16.37
2017-11-01T04:50:47.346Z,17.77
2017-11-01T04:51:24.528Z,16.62
2017-11-01T04:51:59.297Z,17.92
2017-11-01T04:52:35.443Z,17.52
2017-11-01T04:53:09.899Z,19.42
2017-11-01T04:53:44.255Z,17.70
2017-11-01T04:54:18.624Z,16.90
2017-11-01T04:54:54.899Z,17.62
2017-11-01T04:55:29.264Z,16.40
2017-11-01T04:56:03.632Z,16.75
2017-11-01T04:56:38.112Z,16.70
2017-11-01T04:57:19.923Z,17.58
2017-11-01T04:57:54.291Z,17.75
2017-11-01T04:58:28.657Z,16.87
2017-11-01T04:59:03.098Z,15.23
2017-11-01T04:59:37.831Z,17.17
2017-11-01T05:00:17.742Z,16.58
2017-11-01T05:00:52.111Z,17.05
2017-11-01T05:01:26.823Z,15.70
2017-11-01T05:02:01.319Z,16.77
2017-11-01T05:02:36.066Z,15.75
2017-11-01T05:03:11.992Z,18.33
2017-11-01T05:03:46.182Z,16.90
2017-11-01T05:04:20.885Z,16.48
2017-11-01T05:04:55.250Z,15.25
2017-11-01T05:05:29.963Z,16.70
2017-11-01T05:06:04.320Z,16.05
2017-11-01T05:06:40.491Z,15.98
2017-11-01T05:07:14.862Z,16.30
2017-11-01T05:07:49.258Z,16.15
2017-11-01T05:08:29.102Z,16.62
2017-11-01T05:09:08.943Z,15.98
2017-11-01T05:09:45.761Z,16.83
2017-11-01T05:10:23.026Z,16.42
2017-11-01T05:10:57.723Z,15.88
2017-11-01T05:11:37.728Z,16.70
2017-11-01T05:12:13.902Z,16.15
2017-11-01T05:12:53.396Z,16.52
2017-11-01T05:13:27.770Z,16.45
2017-11-01T05:14:03.033Z,15.85
2017-11-01T05:14:37.391Z,17.10
2017-11-01T05:15:13.456Z,15.90
2017-11-01T05:15:47.831Z,15.80
2017-11-01T05:16:22.231Z,16.60
2017-11-01T05:16:56.594Z,15.95
2017-11-01T05:17:31.083Z,15.40
2017-11-01T05:18:05.477Z,16.08
2017-11-01T05:18:39.868Z,15.68
2017-11-01T05:19:14.223Z,15.73
2017-11-01T05:19:48.582Z,15.15
2017-11-01T05:20:22.955Z,15.98
2017-11-01T05:20:57.336Z,14.55
2017-11-01T05:21:32.063Z,15.65
2017-11-01T05:22:06.428Z,16.52
2017-11-01T05:22:40.800Z,15.25
2017-11-01T05:23:15.843Z,15.35
2017-11-01T05:23:50.548Z,15.68
2017-11-01T05:24:24.915Z,16.98
2017-11-01T05:24:59.323Z,16.55
2017-11-01T05:25:48.744Z,15.65
2017-11-01T05:26:23.111Z,15.52
2017-11-01T05:26:57.511Z,15.23
2017-11-01T05:27:38.463Z,15.00
2017-11-01T05:28:13.752Z,16.98
2017-11-01T05:28:48.455Z,15.30
2017-11-01T05:29:23.166Z,15.35
2017-11-01T05:29:57.535Z,15.60
2017-11-01T05:30:31.904Z,15.98
2017-11-01T05:31:08.090Z,17.15
2017-11-01T05:31:42.473Z,16.23
2017-11-01T05:32:16.840Z,16.52
2017-11-01T05:32:51.576Z,15.82
2017-11-01T05:33:26.305Z,14.73
2017-11-01T05:34:01.008Z,15.70
2017-11-01T05:34:35.386Z,15.63
2017-11-01T05:35:09.805Z,16.70
2017-11-01T05:35:44.170Z,16.05
2017-11-01T05:36:18.544Z,16.40
2017-11-01T05:36:52.919Z,15.27
2017-11-01T05:37:27.290Z,16.05
2017-11-01T05:38:01.696Z,14.70
2017-11-01T05:38:36.053Z,16.30
2017-11-01T05:39:10.448Z,14.30
2017-11-01T05:39:44.823Z,14.90
2017-11-01T05:40:19.215Z,15.63
2017-11-01T05:40:53.584Z,15.88
2017-11-01T05:41:28.305Z,15.65
2017-11-01T05:42:02.488Z,16.45
2017-11-01T05:42:36.916Z,15.50
2017-11-01T05:43:11.328Z,16.83
2017-11-01T05:43:46.044Z,14.75
2017-11-01T05:44:20.738Z,14.55
2017-11-01T05:44:55.114Z,14.63
2017-11-01T05:45:29.486Z,15.48
2017-11-01T05:46:03.865Z,14.90
2017-11-01T05:46:38.227Z,15.43
2017-11-01T05:47:12.960Z,13.50
2017-11-01T05:47:47.340Z,14.95
2017-11-01T05:48:22.182Z,15.25
2017-11-01T05:48:56.553Z,14.52
2017-11-01T05:49:30.971Z,13.85
2017-11-01T05:50:05.352Z,14.57
2017-11-01T05:50:39.748Z,14.27
2017-11-01T05:51:14.455Z,14.52
2017-11-01T05:51:48.829Z,14.00
2017-11-01T05:52:23.200Z,14.27
2017-11-01T05:52:57.911Z,15.60
2017-11-01T05:53:32.289Z,13.13
2017-11-01T05:54:06.663Z,13.30
2017-11-01T05:54:41.052Z,13.65
2017-11-01T05:55:15.425Z,12.88
2017-11-01T05:55:49.795Z,12.70
2017-11-01T05:56:24.205Z,13.00
2017-11-01T05:56:58.928Z,13.13
2017-11-01T05:57:33.304Z,13.10
2017-11-01T05:58:08.431Z,13.68
2017-11-01T05:58:42.810Z,13.98
2017-11-01T05:59:17.177Z,13.60
2017-11-01T05:59:51.959Z,13.30
2017-11-01T06:00:26.346Z,13.30
2017-11-01T06:01:00.705Z,13.02
2017-11-01T06:01:35.076Z,14.48
2017-11-01T06:02:10.379Z,13.95
2017-11-01T06:02:44.775Z,12.60
2017-11-01T06:03:19.150Z,13.00
2017-11-01T06:03:53.523Z,13.77
2017-11-01T06:04:27.908Z,12.85
2017-11-01T06:05:02.316Z,12.82
2017-11-01T06:05:36.680Z,13.52
2017-11-01T06:06:10.880Z,12.77
2017-11-01T06:06:45.067Z,12.88
2017-11-01T06:07:19.448Z,13.23
2017-11-01T06:07:53.836Z,12.90
2017-11-01T06:08:28.277Z,13.62
2017-11-01T06:09:03.070Z,12.73
2017-11-01T06:09:37.443Z,13.57
2017-11-01T06:10:11.838Z,11.88
2017-11-01T06:10:46.200Z,13.05
2017-11-01T06:11:20.573Z,13.50
2017-11-01T06:11:55.287Z,12.80
2017-11-01T06:12:29.738Z,12.73
2017-11-01T06:13:04.106Z,13.65
2017-11-01T06:13:38.475Z,12.35
2017-11-01T06:14:12.848Z,13.35
2017-11-01T06:14:47.227Z,13.02
2017-11-01T06:15:21.660Z,12.40
2017-11-01T06:15:56.026Z,14.05
2017-11-01T06:16:30.386Z,12.32
2017-11-01T06:17:04.779Z,12.88
2017-11-01T06:17:39.147Z,12.45
2017-11-01T06:18:13.620Z,12.18
2017-11-01T06:18:47.990Z,12.35
2017-11-01T06:19:22.369Z,12.20
2017-11-01T06:19:56.780Z,11.82
2017-11-01T06:20:31.560Z,13.23
2017-11-01T06:21:05.932Z,12.48
2017-11-01T06:21:40.402Z,12.05
2017-11-01T06:22:15.148Z,11.85
2017-11-01T06:22:49.536Z,11.60
2017-11-01T06:23:24.163Z,12.73
2017-11-01T06:23:59.655Z,12.65
2017-11-01T06:24:34.036Z,12.37
2017-11-01T06:25:08.406Z,11.68
2017-11-01T06:25:43.184Z,11.73
2017-11-01T06:26:17.552Z,12.52
2017-11-01T06:26:51.920Z,12.55
2017-11-01T06:27:26.316Z,11.12
2017-11-01T06:28:00.716Z,12.32
2017-11-01T06:28:35.086Z,12.18
2017-11-01T06:29:09.504Z,12.37
2017-11-01T06:29:43.972Z,12.82
2017-11-01T06:30:18.336Z,12.30
2017-11-01T06:30:53.022Z,11.15
2017-11-01T06:31:27.410Z,12.90
2017-11-01T06:32:01.833Z,11.45
2017-11-01T06:32:36.211Z,10.85
2017-11-01T06:33:10.619Z,12.02
2017-11-01T06:33:44.985Z,12.25
2017-11-01T06:34:19.357Z,11.18
2017-11-01T06:34:54.148Z,11.20
2017-11-01T06:35:28.887Z,11.43
2017-11-01T06:36:03.307Z,10.75
2017-11-01T06:36:37.684Z,10.63
2017-11-01T06:37:12.041Z,10.15
2017-11-01T06:37:46.802Z,10.98
2017-11-01T06:38:21.260Z,10.10
2017-11-01T06:38:56.552Z,10.77
2017-11-01T06:39:30.924Z,9.77
2017-11-01T06:40:05.300Z,9.65
2017-11-01T06:40:39.647Z,9.68
2017-11-01T06:41:14.452Z,9.80
2017-11-01T06:41:48.815Z,9.90
2017-11-01T06:42:23.526Z,10.25
2017-11-01T06:42:57.923Z,10.52
2017-11-01T06:43:32.287Z,10.38
2017-11-01T06:44:06.657Z,9.95
2017-11-01T06:44:41.055Z,10.23
2017-11-01T06:45:15.432Z,10.10
2017-11-01T06:45:49.811Z,9.95
2017-11-01T06:46:24.234Z,9.90
2017-11-01T06:46:58.605Z,10.48
2017-11-01T06:47:33.455Z,10.73
2017-11-01T06:48:07.848Z,10.00
2017-11-01T06:48:42.243Z,9.48
2017-11-01T06:49:16.676Z,9.25
2017-11-01T06:49:51.049Z,10.02
2017-11-01T06:50:25.402Z,9.00
2017-11-01T06:50:59.808Z,10.00
2017-11-01T06:51:34.211Z,8.85
2017-11-01T06:52:08.600Z,9.68
2017-11-01T06:52:42.976Z,8.95
2017-11-01T06:53:17.406Z,9.48
2017-11-01T06:53:52.430Z,8.75
2017-11-01T06:54:27.141Z,8.98
2017-11-01T06:55:01.500Z,9.25
2017-11-01T06:55:36.222Z,9.93
2017-11-01T06:56:10.954Z,8.18
2017-11-01T06:56:46.140Z,9.45
2017-11-01T06:57:20.859Z,9.35
2017-11-01T06:57:55.580Z,9.55
2017-11-01T06:58:30.294Z,9.20
2017-11-01T06:59:04.695Z,8.73
2017-11-01T06:59:39.387Z,8.18
2017-11-01T07:00:13.757Z,8.55
2017-11-01T07:00:48.139Z,8.85
2017-11-01T07:01:22.542Z,7.95
2017-11-01T07:01:56.912Z,7.90
2017-11-01T07:02:33.624Z,8.70
2017-11-01T07:03:12.248Z,7.62
2017-11-01T07:03:46.996Z,8.45
2017-11-01T07:04:21.700Z,8.18
2017-11-01T07:04:56.074Z,7.15
2017-11-01T07:05:30.785Z,7.78
2017-11-01T07:06:05.499Z,7.72
2017-11-01T07:06:40.201Z,7.50
2017-11-01T07:07:14.624Z,8.10
2017-11-01T07:07:49.658Z,8.07
2017-11-01T07:08:27.204Z,7.28
2017-11-01T07:09:02.055Z,6.90
2017-11-01T07:09:51.498Z,6.87
2017-11-01T07:10:25.853Z,7.18
2017-11-01T07:11:00.568Z,6.78
2017-11-01T07:11:35.281Z,7.12
2017-11-01T07:12:09.977Z,7.10
2017-11-01T07:12:44.775Z,6.32
2017-11-01T07:13:19.488Z,7.37
2017-11-01T07:13:53.827Z,7.15
2017-11-01T07:14:28.181Z,5.75
2017-11-01T07:15:02.540Z,7.05
2017-11-01T07:15:37.226Z,6.12
2017-11-01T07:16:11.993Z,6.93
2017-11-01T07:16:46.719Z,6.25
2017-11-01T07:17:21.428Z,6.60
2017-11-01T07:17:56.508Z,6.53
2017-11-01T07:18:30.964Z,6.87
2017-11-01T07:19:05.674Z,6.72
2017-11-01T07:19:40.399Z,5.55
2017-11-01T07:20:14.826Z,6.00
2017-11-01T07:20:49.237Z,5.80
2017-11-01T07:21:23.596Z,5.68
2017-11-01T07:21:57.769Z,7.12
2017-11-01T07:22:32.158Z,5.80
2017-11-01T07:23:06.823Z,6.82
2017-11-01T07:23:41.186Z,6.53
2017-11-01T07:24:15.892Z,6.47
2017-11-01T07:24:50.587Z,6.07
2017-11-01T07:25:25.292Z,6.20
2017-11-01T07:25:59.996Z,5.93
2017-11-01T07:26:34.709Z,5.70
2017-11-01T07:27:09.055Z,6.57
2017-11-01T07:27:43.750Z,6.10
2017-11-01T07:28:18.440Z,5.75
2017-11-01T07:28:53.150Z,6.40
2017-11-01T07:29:27.842Z,5.53